Time;durP1;ratioP1;P1;durP2;ratioP2;P2;SDS_P1;SDS_P2;PMS_P1;PMS_P2;Temp;Humidity;BMP_temperature;BMP_pressure;BME280_temperature;BME280_humidity;BME280_pressure;Samples;Min_cycle;Max_cycle;Signal;HPM_P1;HPM_P2
2022/01/29 00:01:04;;;;;;;36.17;20.93;;;5.10;99.90;;;;;;5076813;28;20642;-66
2022/01/29 00:03:30;;;;;;;33.17;21.23;;;5.10;99.90;;;;;;5076797;28;20170;-67
2022/01/29 00:05:58;;;;;;;34.30;19.60;;;5.10;99.90;;;;;;5075269;28;20212;-66
2022/01/29 00:08:24;;;;;;;33.03;19.70;;;5.10;99.90;;;;;;5076983;28;20189;-66
2022/01/29 00:10:54;;;;;;;27.70;18.80;;;5.10;99.90;;;;;;5077337;28;20545;-66
2022/01/29 00:13:20;;;;;;;28.73;17.30;;;5.10;99.90;;;;;;5078695;28;20249;-67
2022/01/29 00:15:45;;;;;;;31.10;18.87;;;5.20;99.90;;;;;;5080477;28;20255;-70
2022/01/29 00:18:11;;;;;;;27.70;17.40;;;5.20;99.90;;;;;;5079666;28;20197;-67
2022/01/29 00:20:37;;;;;;;28.67;17.57;;;5.20;99.90;;;;;;5076379;28;20178;-66
2022/01/29 00:23:03;;;;;;;33.67;18.80;;;5.20;99.90;;;;;;5076584;28;20638;-67
2022/01/29 00:25:28;;;;;;;27.03;17.63;;;5.20;99.90;;;;;;5076689;28;20515;-66
2022/01/29 00:27:57;;;;;;;30.90;17.67;;;5.20;99.90;;;;;;5074965;28;20271;-66
2022/01/29 00:30:30;;;;;;;31.03;17.93;;;5.20;99.90;;;;;;5076307;28;20190;-66
2022/01/29 00:32:55;;;;;;;30.57;16.97;;;5.30;99.90;;;;;;5074586;28;20231;-67
2022/01/29 00:35:21;;;;;;;24.67;16.27;;;5.20;99.90;;;;;;5076231;28;20170;-66
2022/01/29 00:37:47;;;;;;;29.77;17.50;;;5.30;99.90;;;;;;5075786;28;20189;-66
2022/01/29 00:40:14;;;;;;;31.43;16.40;;;5.30;99.90;;;;;;5075734;28;20193;-66
2022/01/29 00:42:40;;;;;;;28.20;16.77;;;5.30;99.90;;;;;;5076181;28;20166;-66
2022/01/29 00:45:06;;;;;;;24.67;16.10;;;5.30;99.90;;;;;;5075773;28;20165;-66
2022/01/29 00:47:33;;;;;;;30.23;16.70;;;5.40;99.90;;;;;;5075680;28;20661;-67
2022/01/29 00:49:59;;;;;;;27.07;17.57;;;5.40;99.90;;;;;;5075881;28;20257;-66
2022/01/29 00:52:24;;;;;;;30.00;16.53;;;5.40;99.90;;;;;;5075504;28;20228;-66
2022/01/29 00:54:52;;;;;;;26.30;17.27;;;5.40;99.90;;;;;;5075570;28;20662;-66
2022/01/29 00:57:18;;;;;;;28.20;17.53;;;5.40;99.90;;;;;;5075785;28;20264;-66
2022/01/29 00:59:43;;;;;;;29.90;18.07;;;5.40;99.90;;;;;;5076038;28;20174;-66
2022/01/29 01:02:09;;;;;;;28.83;17.40;;;5.40;99.90;;;;;;5075980;28;20170;-66
2022/01/29 01:04:39;;;;;;;32.67;19.43;;;5.40;99.90;;;;;;5075921;28;20157;-67
2022/01/29 01:07:08;;;;;;;30.03;18.87;;;5.40;99.90;;;;;;5075884;28;20684;-66
2022/01/29 01:09:34;;;;;;;31.03;17.93;;;5.40;99.90;;;;;;5075211;28;20661;-67
2022/01/29 01:11:59;;;;;;;34.93;19.00;;;5.40;99.90;;;;;;5075185;28;20194;-67
2022/01/29 01:14:25;;;;;;;37.33;21.10;;;5.40;99.90;;;;;;5073816;28;20706;-67
2022/01/29 01:16:51;;;;;;;38.27;22.13;;;5.40;99.90;;;;;;5075057;28;20201;-66
2022/01/29 01:19:17;;;;;;;34.07;21.90;;;5.40;99.90;;;;;;5075032;28;20642;-66
2022/01/29 01:21:42;;;;;;;32.87;20.13;;;5.40;99.90;;;;;;5074948;28;20178;-66
2022/01/29 01:24:08;;;;;;;33.73;19.73;;;5.40;99.90;;;;;;5074986;28;20170;-67
2022/01/29 01:26:34;;;;;;;35.83;19.93;;;5.40;99.90;;;;;;5074942;28;20538;-66
2022/01/29 01:29:00;;;;;;;40.57;21.27;;;5.40;99.90;;;;;;5073612;28;20178;-67
2022/01/29 01:31:26;;;;;;;38.70;21.43;;;5.40;99.90;;;;;;5073496;28;20201;-67
2022/01/29 01:33:51;;;;;;;40.77;22.80;;;5.40;99.90;;;;;;5073497;28;20186;-66
2022/01/29 01:36:21;;;;;;;36.27;22.73;;;5.40;99.90;;;;;;5075350;28;20163;-66
2022/01/29 01:38:52;;;;;;;40.53;23.20;;;5.40;99.90;;;;;;5074566;28;20538;-66
2022/01/29 01:41:23;;;;;;;39.53;22.03;;;5.40;99.90;;;;;;5075128;28;20162;-67
2022/01/29 01:43:49;;;;;;;47.70;22.70;;;5.40;99.90;;;;;;5074847;28;20269;-67
2022/01/29 01:46:16;;;;;;;40.90;23.33;;;5.40;99.90;;;;;;5073180;28;20178;-67
2022/01/29 01:48:41;;;;;;;41.67;24.30;;;5.40;99.90;;;;;;5074653;28;20335;-67
2022/01/29 01:51:08;;;;;;;38.10;22.07;;;5.40;99.90;;;;;;5074527;28;20705;-67
2022/01/29 01:53:34;;;;;;;52.33;23.90;;;5.40;99.90;;;;;;5074351;28;20578;-68
2022/01/29 01:56:00;;;;;;;38.93;22.50;;;5.40;99.90;;;;;;5074319;28;20180;-67
2022/01/29 01:58:26;;;;;;;36.37;22.67;;;5.40;99.90;;;;;;5072551;28;20190;-67
2022/01/29 02:00:51;;;;;;;45.60;22.90;;;5.40;99.90;;;;;;5074070;28;20205;-67
2022/01/29 02:03:17;;;;;;;41.03;23.07;;;5.40;99.90;;;;;;5074654;28;20261;-67
2022/01/29 02:05:45;;;;;;;45.67;23.17;;;5.40;99.90;;;;;;5074130;28;20210;-67
2022/01/29 02:08:14;;;;;;;39.73;23.00;;;5.40;99.90;;;;;;5074070;28;20686;-67
2022/01/29 02:10:40;;;;;;;36.80;23.33;;;5.30;99.90;;;;;;5072637;28;20251;-67
2022/01/29 02:13:06;;;;;;;52.90;24.63;;;5.30;99.90;;;;;;5074475;28;20593;-67
2022/01/29 02:15:32;;;;;;;45.23;24.47;;;5.30;99.90;;;;;;5074002;28;20279;-67
2022/01/29 02:17:58;;;;;;;39.03;23.43;;;5.30;99.90;;;;;;5072576;28;20198;-67
2022/01/29 02:20:27;;;;;;;36.03;22.03;;;5.40;99.90;;;;;;5074136;28;20575;-67
2022/01/29 02:22:53;;;;;;;45.83;24.60;;;5.40;99.90;;;;;;5073738;28;20178;-66
2022/01/29 02:25:28;;;;;;;38.70;23.10;;;5.40;99.90;;;;;;5073679;28;20176;-67
2022/01/29 02:27:54;;;;;;;41.97;23.80;;;5.40;99.90;;;;;;5072278;28;20220;-67
2022/01/29 02:30:19;;;;;;;36.30;22.63;;;5.40;99.90;;;;;;5074106;28;20178;-66
2022/01/29 02:32:45;;;;;;;35.83;21.57;;;5.40;99.90;;;;;;5074153;28;20212;-68
2022/01/29 02:35:11;;;;;;;44.70;22.87;;;5.40;99.90;;;;;;5072318;28;20173;-67
2022/01/29 02:37:36;;;;;;;34.50;22.27;;;5.50;99.90;;;;;;5073546;28;20197;-66
2022/01/29 02:40:03;;;;;;;37.30;22.43;;;5.50;99.90;;;;;;5073613;28;20620;-67
2022/01/29 02:42:29;;;;;;;42.57;23.40;;;5.50;99.90;;;;;;5072149;28;20186;-66
2022/01/29 02:44:55;;;;;;;35.50;21.07;;;5.50;99.90;;;;;;5073483;28;20181;-66
2022/01/29 02:47:30;;;;;;;42.80;22.80;;;5.50;99.90;;;;;;5072208;28;20193;-66
2022/01/29 02:49:56;;;;;;;36.77;22.90;;;5.50;99.90;;;;;;5072270;28;20166;-67
2022/01/29 02:52:22;;;;;;;38.67;22.67;;;5.50;99.90;;;;;;5073357;28;20214;-67
2022/01/29 02:54:47;;;;;;;38.30;21.47;;;5.50;99.90;;;;;;5073833;28;20227;-67
2022/01/29 02:57:14;;;;;;;39.27;21.20;;;5.50;99.90;;;;;;5072004;28;20190;-66
2022/01/29 02:59:39;;;;;;;43.27;23.00;;;5.50;99.90;;;;;;5072038;28;20173;-67
2022/01/29 03:02:05;;;;;;;38.97;22.90;;;5.40;99.90;;;;;;5071985;28;20180;-67
2022/01/29 03:04:31;;;;;;;36.90;21.37;;;5.50;99.90;;;;;;5073376;28;20178;-66
2022/01/29 03:06:57;;;;;;;39.07;23.77;;;5.50;99.90;;;;;;5073279;28;20234;-67
2022/01/29 03:09:23;;;;;;;44.00;24.17;;;5.50;99.90;;;;;;5072158;28;20180;-66
2022/01/29 03:11:48;;;;;;;35.30;21.37;;;5.50;99.90;;;;;;5072382;28;20280;-67
2022/01/29 03:14:14;;;;;;;38.93;22.33;;;5.50;99.90;;;;;;5073243;28;20641;-66
2022/01/29 03:16:40;;;;;;;38.27;23.10;;;5.50;99.90;;;;;;5073616;28;20177;-66
2022/01/29 03:19:05;;;;;;;36.83;21.60;;;5.50;99.90;;;;;;5073143;28;20559;-66
2022/01/29 03:21:31;;;;;;;36.33;22.90;;;5.50;99.90;;;;;;5073077;28;20281;-66
2022/01/29 03:23:57;;;;;;;41.53;21.63;;;5.40;99.90;;;;;;5071846;28;20174;-66
2022/01/29 03:26:22;;;;;;;40.30;23.43;;;5.40;99.90;;;;;;5073141;28;20217;-66
2022/01/29 03:28:48;;;;;;;44.80;24.17;;;5.40;99.90;;;;;;5073331;28;20729;-67
2022/01/29 03:31:14;;;;;;;36.87;21.67;;;5.40;99.90;;;;;;5073957;28;20284;-67
2022/01/29 03:33:40;;;;;;;41.10;21.77;;;5.40;99.90;;;;;;5071762;28;20178;-67
2022/01/29 03:36:06;;;;;;;34.77;21.77;;;5.40;99.90;;;;;;5072892;28;20253;-66
2022/01/29 03:38:32;;;;;;;39.03;22.57;;;5.40;99.90;;;;;;5071600;28;20190;-67
2022/01/29 03:40:59;;;;;;;36.73;22.03;;;5.40;99.90;;;;;;5071676;28;20646;-67
2022/01/29 03:43:34;;;;;;;38.73;20.33;;;5.40;99.90;;;;;;5071716;28;20665;-66
2022/01/29 03:46:00;;;;;;;36.37;20.37;;;5.40;99.90;;;;;;5073507;28;20154;-66
2022/01/29 03:48:26;;;;;;;39.30;21.67;;;5.30;99.90;;;;;;5072607;28;20198;-68
2022/01/29 03:50:52;;;;;;;36.33;21.83;;;5.40;99.90;;;;;;5074374;28;20194;-67
2022/01/29 03:53:17;;;;;;;41.33;21.77;;;5.40;99.90;;;;;;5074191;28;20597;-68
2022/01/29 03:55:43;;;;;;;37.47;20.30;;;5.30;99.90;;;;;;5071466;28;20208;-67
2022/01/29 03:58:09;;;;;;;39.90;21.13;;;5.30;99.90;;;;;;5072883;28;20185;-67
2022/01/29 04:00:35;;;;;;;33.90;20.57;;;5.40;99.90;;;;;;5073370;28;20207;-67
2022/01/29 04:03:00;;;;;;;40.23;20.30;;;5.40;99.90;;;;;;5072867;28;20173;-67
2022/01/29 04:05:26;;;;;;;35.63;20.33;;;5.40;99.90;;;;;;5072952;28;20174;-67
2022/01/29 04:07:52;;;;;;;33.50;20.17;;;5.40;99.90;;;;;;5072661;28;20269;-67
2022/01/29 04:10:20;;;;;;;31.43;19.23;;;5.50;99.90;;;;;;5072674;28;20182;-67
2022/01/29 04:12:49;;;;;;;27.17;19.00;;;5.50;99.90;;;;;;5071310;28;20177;-67
2022/01/29 04:15:15;;;;;;;33.43;20.40;;;5.50;99.90;;;;;;5072557;28;20174;-67
2022/01/29 04:17:40;;;;;;;32.50;20.60;;;5.50;99.90;;;;;;5072453;28;20543;-67
2022/01/29 04:20:07;;;;;;;32.63;19.93;;;5.50;99.90;;;;;;5072580;28;20569;-67
2022/01/29 04:22:32;;;;;;;28.10;17.80;;;5.50;99.90;;;;;;5072798;28;20184;-67
2022/01/29 04:24:58;;;;;;;29.60;17.87;;;5.50;99.90;;;;;;5076008;28;20178;-67
2022/01/29 04:27:34;;;;;;;30.17;19.37;;;5.50;99.90;;;;;;5074642;28;20217;-67
2022/01/29 04:30:03;;;;;;;30.13;18.53;;;5.50;99.90;;;;;;5076222;28;20165;-67
2022/01/29 04:32:56;;;;;;;30.80;19.03;;;5.40;99.90;;;;;;5076193;28;20632;-67
2022/01/29 04:35:17;;;;;;;24.27;16.67;;;5.40;99.90;;;;;;5075769;28;20181;-67
2022/01/29 04:37:43;;;;;;;31.50;18.40;;;5.40;99.90;;;;;;5076118;28;20190;-67
2022/01/29 04:40:10;;;;;;;29.27;17.40;;;5.50;99.90;;;;;;5076149;28;20170;-67
2022/01/29 04:42:37;;;;;;;31.93;19.20;;;5.40;99.90;;;;;;5075771;28;20238;-67
2022/01/29 04:45:03;;;;;;;30.30;17.77;;;5.40;99.90;;;;;;5075964;28;20702;-67
2022/01/29 04:47:29;;;;;;;28.87;17.37;;;5.40;99.90;;;;;;5075736;28;20250;-67
2022/01/29 04:49:54;;;;;;;31.17;17.80;;;5.40;99.90;;;;;;5075893;28;20265;-67
2022/01/29 04:52:20;;;;;;;31.90;17.93;;;5.40;99.90;;;;;;5074649;28;20201;-67
2022/01/29 04:54:46;;;;;;;34.80;18.53;;;5.40;99.90;;;;;;5074243;28;20177;-66
2022/01/29 04:57:11;;;;;;;28.17;17.57;;;5.40;99.90;;;;;;5075649;28;20306;-67
2022/01/29 04:59:37;;;;;;;28.20;17.63;;;5.40;99.90;;;;;;5075722;28;20220;-67
2022/01/29 05:02:03;;;;;;;32.43;18.33;;;5.40;99.90;;;;;;5075418;28;20186;-66
2022/01/29 05:04:28;;;;;;;27.77;16.93;;;5.40;99.90;;;;;;5075403;28;20200;-67
2022/01/29 05:06:54;;;;;;;27.67;16.37;;;5.40;99.90;;;;;;5075623;28;20247;-66
2022/01/29 05:09:20;;;;;;;28.97;18.20;;;5.40;99.90;;;;;;5075178;28;20643;-67
2022/01/29 05:11:49;;;;;;;27.00;16.47;;;5.40;99.90;;;;;;5075595;28;20201;-67
2022/01/29 05:14:29;;;;;;;24.27;16.60;;;5.40;99.90;;;;;;5075420;28;20180;-66
2022/01/29 05:26:49;;;;;;;27.77;17.20;;;5.40;99.90;;;;;;5073612;28;20193;-66
2022/01/29 05:28:05;;;;;;;23.73;15.60;;;5.40;99.90;;;;;;5074836;28;20223;-67
2022/01/29 05:30:31;;;;;;;23.47;15.03;;;5.40;99.90;;;;;;5073388;28;20593;-67
2022/01/29 05:32:57;;;;;;;23.13;15.27;;;5.40;99.90;;;;;;5075433;28;20181;-67
2022/01/29 05:35:22;;;;;;;22.57;14.37;;;5.40;99.90;;;;;;5072770;28;20166;-67
2022/01/29 05:37:50;;;;;;;25.90;14.67;;;5.40;99.90;;;;;;5073255;28;20217;-67
2022/01/29 05:40:17;;;;;;;23.20;13.87;;;5.40;99.90;;;;;;5073260;28;20180;-66
2022/01/29 05:42:43;;;;;;;21.67;14.33;;;5.40;99.90;;;;;;5073259;28;20180;-67
2022/01/29 05:45:09;;;;;;;24.70;14.33;;;5.40;99.90;;;;;;5073156;28;20581;-66
2022/01/29 05:47:35;;;;;;;19.90;13.70;;;5.40;99.90;;;;;;5074301;28;20555;-66
2022/01/29 05:50:02;;;;;;;22.30;13.27;;;5.40;99.90;;;;;;5074928;28;20249;-67
2022/01/29 05:52:28;;;;;;;19.63;13.00;;;5.50;99.90;;;;;;5074250;28;20198;-66
2022/01/29 05:54:53;;;;;;;17.10;12.23;;;5.50;99.90;;;;;;5074303;28;20244;-67
2022/01/29 05:57:19;;;;;;;13.73;10.77;;;5.50;99.90;;;;;;5074377;28;20193;-67
2022/01/29 05:59:45;;;;;;;16.80;10.87;;;5.50;99.90;;;;;;5074720;28;20533;-66
2022/01/29 06:02:10;;;;;;;18.53;12.10;;;5.50;99.90;;;;;;5074151;28;20776;-67
2022/01/29 06:04:36;;;;;;;17.73;12.60;;;5.60;99.90;;;;;;5074112;28;20253;-66
2022/01/29 06:07:02;;;;;;;17.47;12.07;;;5.60;99.90;;;;;;5072760;28;20224;-67
2022/01/29 06:09:28;;;;;;;18.07;12.80;;;5.60;99.90;;;;;;5074307;28;20200;-67
2022/01/29 06:11:53;;;;;;;16.00;12.27;;;5.60;99.90;;;;;;5074231;28;20201;-67
2022/01/29 06:14:19;;;;;;;18.60;13.20;;;5.70;99.90;;;;;;5074245;28;20585;-67
2022/01/29 06:16:45;;;;;;;16.77;12.63;;;5.70;99.90;;;;;;5074655;28;20233;-66
2022/01/29 06:19:10;;;;;;;16.37;12.93;;;5.70;99.90;;;;;;5074534;28;20178;-67
2022/01/29 06:21:36;;;;;;;19.00;12.77;;;5.80;99.90;;;;;;5074941;28;20174;-67
2022/01/29 06:24:02;;;;;;;19.87;13.27;;;5.80;99.90;;;;;;5073806;28;20513;-67
2022/01/29 06:26:28;;;;;;;17.30;13.20;;;5.90;99.90;;;;;;5073737;28;20197;-67
2022/01/29 06:28:54;;;;;;;17.07;13.27;;;5.90;99.90;;;;;;5073796;28;20232;-67
2022/01/29 06:31:20;;;;;;;21.40;13.77;;;5.90;99.90;;;;;;5073688;28;20194;-66
2022/01/29 06:33:47;;;;;;;22.20;15.10;;;5.90;99.90;;;;;;5074013;28;20649;-66
2022/01/29 06:36:12;;;;;;;21.03;14.33;;;5.90;99.90;;;;;;5073644;28;20182;-66
2022/01/29 06:38:38;;;;;;;21.43;14.50;;;5.90;99.90;;;;;;5073680;28;20198;-67
2022/01/29 06:41:04;;;;;;;19.67;14.40;;;5.90;99.90;;;;;;5073987;28;20581;-66
2022/01/29 06:43:30;;;;;;;23.00;16.13;;;6.00;99.90;;;;;;5072519;28;20193;-67
2022/01/29 06:45:56;;;;;;;26.70;16.80;;;6.00;99.90;;;;;;5073524;28;20173;-67
2022/01/29 06:48:22;;;;;;;25.63;17.93;;;6.00;99.90;;;;;;5073570;28;20202;-67
2022/01/29 06:50:48;;;;;;;26.43;17.00;;;6.00;99.90;;;;;;5073768;28;20289;-67
2022/01/29 06:53:13;;;;;;;27.83;18.63;;;6.00;99.90;;;;;;5073787;28;20202;-66
2022/01/29 06:55:39;;;;;;;25.80;17.80;;;6.00;99.90;;;;;;5073808;28;20181;-64
2022/01/29 06:58:06;;;;;;;29.43;19.07;;;6.00;99.90;;;;;;5073666;28;20238;-63
2022/01/29 07:00:32;;;;;;;27.57;17.67;;;6.00;99.90;;;;;;5073731;28;20166;-63
2022/01/29 07:02:58;;;;;;;30.27;17.83;;;6.00;99.90;;;;;;5073648;28;20201;-63
2022/01/29 07:05:24;;;;;;;28.80;18.73;;;6.10;99.90;;;;;;5073901;28;20692;-63
2022/01/29 07:07:49;;;;;;;28.73;18.50;;;6.10;99.90;;;;;;5073579;28;20203;-63
2022/01/29 07:10:16;;;;;;;27.97;19.13;;;6.10;99.90;;;;;;5073645;28;20202;-63
2022/01/29 07:12:42;;;;;;;26.53;17.73;;;6.10;99.90;;;;;;5072120;28;20653;-63
2022/01/29 07:15:09;;;;;;;29.03;18.90;;;6.10;99.90;;;;;;5072119;28;20208;-63
2022/01/29 07:17:36;;;;;;;29.13;18.53;;;6.10;99.90;;;;;;5073179;28;20209;-63
2022/01/29 07:20:04;;;;;;;30.67;18.97;;;6.10;99.90;;;;;;5071936;28;20177;-63
2022/01/29 07:22:30;;;;;;;32.00;19.53;;;6.20;99.90;;;;;;5073053;28;20184;-63
2022/01/29 07:24:55;;;;;;;27.63;19.07;;;6.20;99.90;;;;;;5073489;28;20182;-63
2022/01/29 07:27:21;;;;;;;30.60;20.63;;;6.20;99.90;;;;;;5073055;28;20299;-63
2022/01/29 07:29:47;;;;;;;32.07;20.30;;;6.20;99.90;;;;;;5073409;28;20185;-62
2022/01/29 07:32:13;;;;;;;29.13;19.00;;;6.20;99.90;;;;;;5073698;28;20211;-62
2022/01/29 07:34:38;;;;;;;34.57;21.60;;;6.30;99.90;;;;;;5073342;28;20507;-65
2022/01/29 07:37:04;;;;;;;28.50;19.23;;;6.30;99.90;;;;;;5073186;28;20190;-63
2022/01/29 07:39:30;;;;;;;32.83;19.13;;;6.30;99.90;;;;;;5073348;28;20185;-63
2022/01/29 07:42:00;;;;;;;33.40;19.17;;;6.30;99.90;;;;;;5073416;28;20223;-64
2022/01/29 07:44:37;;;;;;;36.63;21.03;;;6.30;99.90;;;;;;5074785;28;20192;-64
2022/01/29 07:47:08;;;;;;;39.23;22.97;;;6.30;99.90;;;;;;5071647;28;20205;-63
2022/01/29 07:49:37;;;;;;;32.17;20.43;;;6.40;99.90;;;;;;5071834;28;20166;-64
2022/01/29 07:52:09;;;;;;;40.33;21.47;;;6.40;99.90;;;;;;5072836;28;20565;-64
2022/01/29 07:54:49;;;;;;;33.47;21.60;;;6.40;99.90;;;;;;5072835;28;20162;-65
2022/01/29 07:57:16;;;;;;;37.33;23.27;;;6.40;99.90;;;;;;5073842;28;20197;-64
2022/01/29 07:59:43;;;;;;;35.27;21.67;;;6.40;99.90;;;;;;5075017;28;20174;-64
2022/01/29 08:02:10;;;;;;;41.23;22.23;;;6.40;99.90;;;;;;5075537;28;20177;-64
2022/01/29 08:04:36;;;;;;;35.93;22.67;;;6.40;99.90;;;;;;5075362;28;20642;-64
2022/01/29 08:07:05;;;;;;;37.43;22.77;;;6.50;99.90;;;;;;5075104;28;20198;-64
2022/01/29 08:09:32;;;;;;;36.33;21.93;;;6.50;99.90;;;;;;5076700;28;20257;-63
2022/01/29 08:12:00;;;;;;;43.77;24.63;;;6.50;99.90;;;;;;5074759;28;20263;-64
2022/01/29 08:14:32;;;;;;;46.13;25.37;;;6.60;99.90;;;;;;5058542;28;20190;-64
2022/01/29 08:17:03;;;;;;;41.43;22.87;;;6.60;99.90;;;;;;5076724;28;20213;-63
2022/01/29 08:19:29;;;;;;;40.17;23.77;;;6.60;99.90;;;;;;5074865;28;20182;-64
2022/01/29 08:22:00;;;;;;;39.73;23.57;;;6.60;99.90;;;;;;5076227;28;20220;-64
2022/01/29 08:24:37;;;;;;;40.53;22.83;;;6.60;99.90;;;;;;5074990;28;20174;-63
2022/01/29 08:27:06;;;;;;;38.40;24.80;;;6.60;99.90;;;;;;5074885;28;20213;-64
2022/01/29 08:29:35;;;;;;;44.90;24.07;;;6.60;99.90;;;;;;5076096;28;20252;-63
2022/01/29 08:32:09;;;;;;;42.80;24.27;;;6.60;99.90;;;;;;5074755;28;20640;-63
2022/01/29 08:34:35;;;;;;;39.37;24.37;;;6.60;99.90;;;;;;5074650;28;20170;-63
2022/01/29 08:37:03;;;;;;;43.17;24.93;;;6.60;99.90;;;;;;5074610;28;20198;-63
2022/01/29 08:39:35;;;;;;;42.10;25.07;;;6.60;99.90;;;;;;5074499;28;20201;-64
2022/01/29 08:42:01;;;;;;;45.23;26.47;;;6.60;99.90;;;;;;5076068;28;20237;-63
2022/01/29 08:44:38;;;;;;;44.50;25.60;;;6.60;99.90;;;;;;5074531;28;20203;-63
2022/01/29 08:47:07;;;;;;;43.77;25.30;;;6.60;99.90;;;;;;5076270;28;20201;-63
2022/01/29 08:49:32;;;;;;;42.70;23.40;;;6.60;99.90;;;;;;5074107;28;20650;-63
2022/01/29 08:51:58;;;;;;;44.03;25.30;;;6.60;99.90;;;;;;5075846;28;20231;-64
2022/01/29 08:54:24;;;;;;;42.00;25.43;;;6.70;99.90;;;;;;5076168;28;20173;-63
2022/01/29 08:56:50;;;;;;;39.50;24.73;;;6.70;99.90;;;;;;5074136;28;20653;-63
2022/01/29 08:59:15;;;;;;;45.23;26.50;;;6.70;99.90;;;;;;5074262;28;20219;-64
2022/01/29 09:01:41;;;;;;;40.63;24.27;;;6.70;99.90;;;;;;5075739;28;20526;-63
2022/01/29 09:04:08;;;;;;;42.87;25.80;;;6.70;99.90;;;;;;5075396;28;20182;-64
2022/01/29 09:06:34;;;;;;;40.60;25.03;;;6.70;99.90;;;;;;5075732;28;20170;-69
2022/01/29 09:09:00;;;;;;;39.70;24.53;;;6.70;99.90;;;;;;5074833;28;20158;-69
2022/01/29 09:11:26;;;;;;;48.90;27.30;;;6.70;99.90;;;;;;5076057;28;20255;-70
2022/01/29 09:13:52;;;;;;;47.17;26.27;;;6.70;99.90;;;;;;5074234;28;20182;-71
2022/01/29 09:16:17;;;;;;;44.97;26.87;;;6.70;99.90;;;;;;5076076;28;20188;-65
2022/01/29 09:18:43;;;;;;;42.57;26.17;;;6.70;99.90;;;;;;5073937;28;20232;-63
2022/01/29 09:21:09;;;;;;;47.57;27.97;;;6.80;99.90;;;;;;5075533;28;20182;-64
2022/01/29 09:23:35;;;;;;;45.53;27.80;;;6.80;99.90;;;;;;5074818;28;20333;-63
2022/01/29 09:26:01;;;;;;;48.57;27.73;;;6.80;99.90;;;;;;5075340;28;20227;-63
2022/01/29 09:28:27;;;;;;;45.63;27.17;;;6.80;99.90;;;;;;5074749;28;20674;-63
2022/01/29 09:30:53;;;;;;;46.17;26.90;;;6.80;99.90;;;;;;5074735;28;20686;-64
2022/01/29 09:33:18;;;;;;;43.63;27.00;;;6.80;99.90;;;;;;5074829;28;20181;-63
2022/01/29 09:35:44;;;;;;;41.37;26.87;;;6.80;99.90;;;;;;5074750;28;20185;-64
2022/01/29 09:38:11;;;;;;;38.63;25.50;;;6.80;99.90;;;;;;5075037;28;20190;-63
2022/01/29 09:40:40;;;;;;;46.03;26.17;;;6.90;99.90;;;;;;5074677;28;20177;-63
2022/01/29 09:43:08;;;;;;;44.07;26.23;;;6.90;99.90;;;;;;5073891;28;20178;-64
2022/01/29 09:45:34;;;;;;;43.30;26.03;;;6.90;99.90;;;;;;5074575;28;20170;-63
2022/01/29 09:48:03;;;;;;;42.97;26.10;;;6.90;99.90;;;;;;5074694;28;20197;-63
2022/01/29 09:50:35;;;;;;;43.40;26.30;;;6.90;99.90;;;;;;5074901;28;20227;-64
2022/01/29 09:53:02;;;;;;;44.00;25.77;;;6.90;99.90;;;;;;5074694;28;20189;-63
2022/01/29 09:55:29;;;;;;;37.20;24.57;;;7.00;99.90;;;;;;5073306;28;20526;-63
2022/01/29 09:57:55;;;;;;;38.43;24.40;;;7.00;99.90;;;;;;5074302;28;20190;-62
2022/01/29 10:00:21;;;;;;;36.27;23.07;;;7.00;99.90;;;;;;5074282;28;20170;-63
2022/01/29 10:03:09;;;;;;;38.57;24.37;;;7.10;99.90;;;;;;5074257;28;20253;-63
2022/01/29 10:05:40;;;;;;;33.43;22.47;;;7.00;99.90;;;;;;5072869;28;20178;-63
2022/01/29 10:08:07;;;;;;;38.77;23.37;;;7.10;99.90;;;;;;5074170;28;20193;-63
2022/01/29 10:10:41;;;;;;;36.37;24.03;;;7.10;99.90;;;;;;5074029;28;20257;-63
2022/01/29 10:13:33;;;;;;;34.83;23.20;;;7.10;99.90;;;;;;5072649;28;20647;-63
2022/01/29 10:16:19;;;;;;;32.90;22.57;;;7.10;99.90;;;;;;5073993;28;20169;-63
2022/01/29 10:18:48;;;;;;;33.90;23.10;;;7.20;99.90;;;;;;5074112;28;20219;-63
2022/01/29 10:21:13;;;;;;;36.20;21.83;;;7.20;99.90;;;;;;5073509;28;20202;-62
2022/01/29 10:23:41;;;;;;;32.17;22.03;;;7.20;99.90;;;;;;5072544;28;20220;-63
2022/01/29 10:26:09;;;;;;;31.17;21.57;;;7.30;99.90;;;;;;5073863;28;20196;-64
2022/01/29 10:28:36;;;;;;;30.80;21.20;;;7.30;99.90;;;;;;5073848;28;20681;-63
2022/01/29 10:31:05;;;;;;;30.27;20.30;;;7.30;99.90;;;;;;5073922;28;20202;-63
2022/01/29 10:33:38;;;;;;;32.93;21.33;;;7.40;99.90;;;;;;5073777;28;20182;-63
2022/01/29 10:36:14;;;;;;;34.20;21.50;;;7.40;99.90;;;;;;5073994;28;20230;-63
2022/01/29 10:38:40;;;;;;;28.87;19.80;;;7.40;99.90;;;;;;5073740;28;20650;-63
2022/01/29 10:41:25;;;;;;;30.00;20.47;;;7.50;99.90;;;;;;5073589;28;20178;-63
2022/01/29 10:43:57;;;;;;;27.43;20.20;;;7.50;99.90;;;;;;5073932;28;20626;-63
2022/01/29 10:46:30;;;;;;;29.40;19.80;;;7.50;99.90;;;;;;5073817;28;20261;-63
2022/01/29 10:49:00;;;;;;;25.53;19.67;;;7.60;99.90;;;;;;5073471;28;20219;-63
2022/01/29 10:51:26;;;;;;;26.73;20.40;;;7.60;99.90;;;;;;5073809;28;20259;-63
2022/01/29 10:53:53;;;;;;;26.60;19.53;;;7.60;99.90;;;;;;5073564;28;20563;-62
2022/01/29 10:56:22;;;;;;;27.87;19.27;;;7.60;99.90;;;;;;5073717;28;20238;-64
2022/01/29 10:58:50;;;;;;;27.90;20.80;;;7.70;99.90;;;;;;5073310;28;20250;-64
2022/01/29 11:01:19;;;;;;;26.07;19.80;;;7.70;99.90;;;;;;5073301;28;20262;-62
2022/01/29 11:03:45;;;;;;;32.23;21.97;;;7.70;99.90;;;;;;5073321;28;20193;-62
2022/01/29 11:06:16;;;;;;;31.60;20.93;;;7.70;99.90;;;;;;5073649;28;20166;-64
2022/01/29 11:08:42;;;;;;;30.33;20.67;;;7.80;99.90;;;;;;5071941;28;20202;-63
2022/01/29 11:11:10;;;;;;;30.53;22.03;;;7.80;99.90;;;;;;5073200;28;20669;-63
2022/01/29 11:13:37;;;;;;;28.47;21.30;;;7.80;99.90;;;;;;5073283;28;20579;-63
2022/01/29 11:16:03;;;;;;;25.60;19.87;;;7.80;99.90;;;;;;5073303;28;20180;-63
2022/01/29 11:18:34;;;;;;;27.17;20.00;;;7.80;99.90;;;;;;5073145;28;20197;-62
2022/01/29 11:21:01;;;;;;;27.87;19.43;;;7.80;99.90;;;;;;5073513;28;20680;-63
2022/01/29 11:23:29;;;;;;;29.60;20.50;;;7.80;99.90;;;;;;5073289;28;20170;-64
2022/01/29 11:25:57;;;;;;;29.03;20.13;;;7.70;99.90;;;;;;5071780;28;20642;-63
2022/01/29 11:28:26;;;;;;;28.50;20.97;;;7.70;99.90;;;;;;5072963;28;20215;-63
2022/01/29 11:31:13;;;;;;;26.67;19.80;;;7.70;99.90;;;;;;5073017;28;20205;-63
2022/01/29 11:33:57;;;;;;;29.97;20.20;;;7.70;99.90;;;;;;5076800;28;20614;-63
2022/01/29 11:36:48;;;;;;;29.67;19.47;;;7.70;99.90;;;;;;5077015;28;20256;-64
2022/01/29 11:39:34;;;;;;;31.20;20.03;;;7.70;99.90;;;;;;5075693;28;20224;-64
2022/01/29 11:42:14;;;;;;;30.13;19.63;;;7.70;99.90;;;;;;5077492;28;20158;-64
2022/01/29 11:44:41;;;;;;;24.73;18.33;;;7.70;99.90;;;;;;5075522;28;20192;-63
2022/01/29 11:47:25;;;;;;;28.43;19.57;;;7.70;99.90;;;;;;5077023;28;20666;-63
2022/01/29 11:50:19;;;;;;;27.13;18.03;;;7.80;99.90;;;;;;5077870;28;20533;-63
2022/01/29 11:52:57;;;;;;;22.20;15.70;;;7.80;99.90;;;;;;5076621;28;20217;-64
2022/01/29 11:55:55;;;;;;;22.27;16.10;;;7.80;99.90;;;;;;5075404;28;20212;-63
2022/01/29 11:58:26;;;;;;;21.30;15.73;;;7.80;99.90;;;;;;5076097;28;20213;-64
2022/01/29 12:00:58;;;;;;;22.10;14.90;;;7.80;99.90;;;;;;5077203;28;20162;-63
2022/01/29 12:03:45;;;;;;;20.70;16.17;;;7.80;99.90;;;;;;5075275;28;20173;-65
2022/01/29 12:06:20;;;;;;;21.97;16.03;;;7.80;99.90;;;;;;5076578;28;20157;-66
2022/01/29 12:09:06;;;;;;;18.97;15.07;;;7.90;99.90;;;;;;5077477;28;20258;-65
2022/01/29 12:11:33;;;;;;;21.37;15.00;;;7.90;99.90;;;;;;5076896;28;20224;-65
2022/01/29 12:14:14;;;;;;;18.53;13.43;;;8.00;99.90;;;;;;5076681;28;20613;-65
2022/01/29 12:16:51;;;;;;;15.90;13.23;;;8.00;99.90;;;;;;5076305;28;20158;-65
2022/01/29 12:19:46;;;;;;;17.53;12.50;;;8.10;99.90;;;;;;5076336;28;20506;-65
2022/01/29 12:22:28;;;;;;;14.23;12.30;;;8.10;99.90;;;;;;5076601;28;20588;-65
2022/01/29 12:24:56;;;;;;;16.80;11.13;;;8.20;99.90;;;;;;5076234;28;20162;-65
2022/01/29 12:27:23;;;;;;;11.90;10.53;;;8.20;99.90;;;;;;5074733;28;20705;-65
2022/01/29 12:29:49;;;;;;;13.00;10.27;;;8.20;99.90;;;;;;5076142;28;20270;-65
2022/01/29 12:32:15;;;;;;;11.90;10.47;;;8.30;99.90;;;;;;5076596;28;20277;-64
2022/01/29 12:34:41;;;;;;;11.93;10.63;;;8.30;99.90;;;;;;5076616;28;20174;-63
2022/01/29 12:37:10;;;;;;;10.47;9.37;;;8.30;99.90;;;;;;5074538;28;20198;-64
2022/01/29 12:39:38;;;;;;;10.57;9.07;;;8.30;99.90;;;;;;5075903;28;20177;-64
2022/01/29 12:44:41;;;;;;;10.60;9.40;;;8.40;99.90;;;;;;5075883;28;20535;-64
2022/01/29 12:47:07;;;;;;;12.90;10.03;;;8.50;99.90;;;;;;5076372;28;20557;-64
2022/01/29 12:49:40;;;;;;;11.23;10.03;;;8.50;99.90;;;;;;5075917;28;20189;-64
2022/01/29 12:52:08;;;;;;;10.10;8.83;;;8.50;99.90;;;;;;5075855;28;20213;-64
2022/01/29 12:54:34;;;;;;;9.40;8.37;;;8.50;99.90;;;;;;5076234;28;20265;-64